sensor_id;sensor_type;location;lat;lon;timestamp;P1;durP1;ratioP1;P2;durP2;ratioP2
18627;SDS011;9443;50.888;10.728;2022-07-09T00:00:21;1.80;;;1.70;;
18627;SDS011;9443;50.888;10.728;2022-07-09T00:10:21;1.87;;;1.63;;
18627;SDS011;9443;50.888;10.728;2022-07-09T00:20:21;1.67;;;1.53;;
18627;SDS011;9443;50.888;10.728;2022-07-09T00:30:22;2.90;;;1.43;;
18627;SDS011;9443;50.888;10.728;2022-07-09T00:40:22;1.83;;;1.37;;
18627;SDS011;9443;50.888;10.728;2022-07-09T00:50:22;3.57;;;1.97;;
18627;SDS011;9443;50.888;10.728;2022-07-09T01:00:23;3.43;;;1.50;;
18627;SDS011;9443;50.888;10.728;2022-07-09T01:10:23;3.97;;;1.77;;
18627;SDS011;9443;50.888;10.728;2022-07-09T01:20:27;5.93;;;1.87;;
18627;SDS011;9443;50.888;10.728;2022-07-09T01:30:29;3.10;;;2.30;;
18627;SDS011;9443;50.888;10.728;2022-07-09T01:40:29;2.25;;;1.70;;
18627;SDS011;9443;50.888;10.728;2022-07-09T01:50:29;5.10;;;1.80;;
18627;SDS011;9443;50.888;10.728;2022-07-09T02:00:30;3.30;;;1.90;;
18627;SDS011;9443;50.888;10.728;2022-07-09T02:10:30;2.83;;;1.87;;
18627;SDS011;9443;50.888;10.728;2022-07-09T02:20:31;4.57;;;2.40;;
18627;SDS011;9443;50.888;10.728;2022-07-09T02:30:32;5.63;;;2.27;;
18627;SDS011;9443;50.888;10.728;2022-07-09T02:40:34;5.27;;;2.50;;
18627;SDS011;9443;50.888;10.728;2022-07-09T02:50:34;5.83;;;2.40;;
18627;SDS011;9443;50.888;10.728;2022-07-09T03:00:35;5.63;;;2.70;;
18627;SDS011;9443;50.888;10.728;2022-07-09T03:10:35;2.20;;;1.90;;
18627;SDS011;9443;50.888;10.728;2022-07-09T03:20:35;5.30;;;2.60;;
18627;SDS011;9443;50.888;10.728;2022-07-09T03:30:36;5.00;;;2.83;;
18627;SDS011;9443;50.888;10.728;2022-07-09T03:40:36;3.20;;;2.43;;
18627;SDS011;9443;50.888;10.728;2022-07-09T03:50:36;5.27;;;3.10;;
18627;SDS011;9443;50.888;10.728;2022-07-09T04:00:37;3.53;;;2.60;;
18627;SDS011;9443;50.888;10.728;2022-07-09T04:10:37;3.70;;;2.50;;
18627;SDS011;9443;50.888;10.728;2022-07-09T04:20:37;3.47;;;2.80;;
18627;SDS011;9443;50.888;10.728;2022-07-09T04:30:38;8.20;;;2.83;;
18627;SDS011;9443;50.888;10.728;2022-07-09T04:40:38;4.30;;;2.57;;
18627;SDS011;9443;50.888;10.728;2022-07-09T04:50:39;5.40;;;2.77;;
18627;SDS011;9443;50.888;10.728;2022-07-09T05:00:39;4.10;;;2.60;;
18627;SDS011;9443;50.888;10.728;2022-07-09T05:10:39;3.08;;;2.67;;
18627;SDS011;9443;50.888;10.728;2022-07-09T05:20:40;3.95;;;3.00;;
18627;SDS011;9443;50.888;10.728;2022-07-09T05:30:42;4.43;;;3.00;;
18627;SDS011;9443;50.888;10.728;2022-07-09T05:40:42;3.75;;;3.20;;
18627;SDS011;9443;50.888;10.728;2022-07-09T05:50:42;9.65;;;3.38;;
18627;SDS011;9443;50.888;10.728;2022-07-09T06:00:43;3.78;;;2.40;;
18627;SDS011;9443;50.888;10.728;2022-07-09T06:10:44;4.68;;;3.10;;
18627;SDS011;9443;50.888;10.728;2022-07-09T06:20:44;4.47;;;2.88;;
18627;SDS011;9443;50.888;10.728;2022-07-09T06:30:45;6.20;;;3.08;;
18627;SDS011;9443;50.888;10.728;2022-07-09T06:40:45;5.40;;;3.00;;
18627;SDS011;9443;50.888;10.728;2022-07-09T06:50:46;3.95;;;2.65;;
18627;SDS011;9443;50.888;10.728;2022-07-09T07:00:46;4.03;;;2.40;;
18627;SDS011;9443;50.888;10.728;2022-07-09T07:10:46;3.63;;;2.70;;
18627;SDS011;9443;50.888;10.728;2022-07-09T07:20:47;3.97;;;2.95;;
18627;SDS011;9443;50.888;10.728;2022-07-09T07:30:48;6.18;;;3.17;;
18627;SDS011;9443;50.888;10.728;2022-07-09T07:40:48;4.03;;;2.70;;
18627;SDS011;9443;50.888;10.728;2022-07-09T07:50:49;5.35;;;3.20;;
18627;SDS011;9443;50.888;10.728;2022-07-09T08:00:49;3.92;;;3.40;;
18627;SDS011;9443;50.888;10.728;2022-07-09T08:10:49;6.90;;;3.50;;
18627;SDS011;9443;50.888;10.728;2022-07-09T08:20:50;6.85;;;3.65;;
18627;SDS011;9443;50.888;10.728;2022-07-09T08:30:52;3.90;;;3.42;;
18627;SDS011;9443;50.888;10.728;2022-07-09T08:40:52;3.63;;;2.92;;
18627;SDS011;9443;50.888;10.728;2022-07-09T08:50:53;3.53;;;2.50;;
18627;SDS011;9443;50.888;10.728;2022-07-09T09:00:54;2.55;;;2.35;;
18627;SDS011;9443;50.888;10.728;2022-07-09T09:10:56;3.05;;;2.30;;
18627;SDS011;9443;50.888;10.728;2022-07-09T09:21:06;3.05;;;2.05;;
18627;SDS011;9443;50.888;10.728;2022-07-09T09:31:17;5.35;;;1.90;;
18627;SDS011;9443;50.888;10.728;2022-07-09T09:41:21;4.03;;;1.98;;
18627;SDS011;9443;50.888;10.728;2022-07-09T09:51:24;3.00;;;1.90;;
18627;SDS011;9443;50.888;10.728;2022-07-09T10:01:28;4.47;;;2.53;;
18627;SDS011;9443;50.888;10.728;2022-07-09T10:11:47;3.65;;;1.98;;
18627;SDS011;9443;50.888;10.728;2022-07-09T10:21:50;5.63;;;2.00;;
18627;SDS011;9443;50.888;10.728;2022-07-09T10:31:52;3.22;;;2.08;;
18627;SDS011;9443;50.888;10.728;2022-07-09T10:42:00;1.35;;;1.25;;
18627;SDS011;9443;50.888;10.728;2022-07-09T10:52:05;4.75;;;2.25;;
18627;SDS011;9443;50.888;10.728;2022-07-09T11:02:06;6.15;;;2.25;;
18627;SDS011;9443;50.888;10.728;2022-07-09T11:12:17;3.10;;;2.25;;
18627;SDS011;9443;50.888;10.728;2022-07-09T11:22:18;4.15;;;2.10;;
18627;SDS011;9443;50.888;10.728;2022-07-09T11:32:19;3.45;;;1.80;;
18627;SDS011;9443;50.888;10.728;2022-07-09T11:42:19;1.52;;;1.42;;
18627;SDS011;9443;50.888;10.728;2022-07-09T11:52:21;3.75;;;1.80;;
18627;SDS011;9443;50.888;10.728;2022-07-09T12:02:22;2.38;;;1.60;;
18627;SDS011;9443;50.888;10.728;2022-07-09T12:12:28;1.77;;;1.30;;
18627;SDS011;9443;50.888;10.728;2022-07-09T12:22:29;1.85;;;1.10;;
18627;SDS011;9443;50.888;10.728;2022-07-09T12:32:29;2.45;;;1.30;;
18627;SDS011;9443;50.888;10.728;2022-07-09T12:42:29;1.00;;;1.00;;
18627;SDS011;9443;50.888;10.728;2022-07-09T12:52:30;1.15;;;0.90;;
18627;SDS011;9443;50.888;10.728;2022-07-09T13:02:32;1.25;;;0.80;;
18627;SDS011;9443;50.888;10.728;2022-07-09T13:12:33;1.42;;;0.80;;
18627;SDS011;9443;50.888;10.728;2022-07-09T13:22:33;0.97;;;0.87;;
18627;SDS011;9443;50.888;10.728;2022-07-09T13:32:33;4.82;;;1.00;;
18627;SDS011;9443;50.888;10.728;2022-07-09T13:42:34;1.17;;;0.80;;
18627;SDS011;9443;50.888;10.728;2022-07-09T13:52:34;2.05;;;0.98;;
18627;SDS011;9443;50.888;10.728;2022-07-09T14:02:35;0.90;;;0.90;;
18627;SDS011;9443;50.888;10.728;2022-07-09T14:12:35;2.30;;;1.15;;
18627;SDS011;9443;50.888;10.728;2022-07-09T14:22:35;2.15;;;1.00;;
18627;SDS011;9443;50.888;10.728;2022-07-09T14:32:36;2.83;;;1.40;;
18627;SDS011;9443;50.888;10.728;2022-07-09T14:42:36;1.38;;;1.20;;
18627;SDS011;9443;50.888;10.728;2022-07-09T14:52:36;1.05;;;1.05;;
18627;SDS011;9443;50.888;10.728;2022-07-09T15:02:37;1.85;;;1.20;;
18627;SDS011;9443;50.888;10.728;2022-07-09T15:12:37;2.30;;;1.00;;
18627;SDS011;9443;50.888;10.728;2022-07-09T15:22:38;1.70;;;1.25;;
18627;SDS011;9443;50.888;10.728;2022-07-09T15:32:38;1.67;;;1.00;;
18627;SDS011;9443;50.888;10.728;2022-07-09T15:42:39;1.20;;;0.93;;
18627;SDS011;9443;50.888;10.728;2022-07-09T15:52:40;1.35;;;1.20;;
18627;SDS011;9443;50.888;10.728;2022-07-09T16:02:43;1.20;;;1.00;;
18627;SDS011;9443;50.888;10.728;2022-07-09T16:12:43;1.30;;;1.17;;
18627;SDS011;9443;50.888;10.728;2022-07-09T16:22:50;1.42;;;1.23;;
18627;SDS011;9443;50.888;10.728;2022-07-09T16:32:52;1.40;;;1.30;;
18627;SDS011;9443;50.888;10.728;2022-07-09T16:42:52;1.33;;;1.30;;
18627;SDS011;9443;50.888;10.728;2022-07-09T16:52:53;1.60;;;1.30;;
18627;SDS011;9443;50.888;10.728;2022-07-09T17:02:53;3.40;;;1.60;;
18627;SDS011;9443;50.888;10.728;2022-07-09T17:12:53;1.77;;;0.90;;
18627;SDS011;9443;50.888;10.728;2022-07-09T17:22:54;1.73;;;1.10;;
18627;SDS011;9443;50.888;10.728;2022-07-09T17:32:54;1.30;;;1.20;;
18627;SDS011;9443;50.888;10.728;2022-07-09T17:42:57;1.70;;;1.10;;
18627;SDS011;9443;50.888;10.728;2022-07-09T17:52:58;1.20;;;1.08;;
18627;SDS011;9443;50.888;10.728;2022-07-09T18:02:59;2.47;;;1.00;;
18627;SDS011;9443;50.888;10.728;2022-07-09T18:13:01;2.55;;;1.10;;
18627;SDS011;9443;50.888;10.728;2022-07-09T18:23:03;1.35;;;1.20;;
18627;SDS011;9443;50.888;10.728;2022-07-09T18:33:03;1.38;;;1.27;;
18627;SDS011;9443;50.888;10.728;2022-07-09T18:43:03;1.40;;;1.10;;
18627;SDS011;9443;50.888;10.728;2022-07-09T18:53:04;1.58;;;1.15;;
18627;SDS011;9443;50.888;10.728;2022-07-09T19:03:04;1.73;;;1.50;;
18627;SDS011;9443;50.888;10.728;2022-07-09T19:13:04;2.25;;;1.70;;
18627;SDS011;9443;50.888;10.728;2022-07-09T19:23:05;1.60;;;1.40;;
18627;SDS011;9443;50.888;10.728;2022-07-09T19:33:05;2.28;;;1.40;;
18627;SDS011;9443;50.888;10.728;2022-07-09T19:43:24;3.05;;;1.55;;
18627;SDS011;9443;50.888;10.728;2022-07-09T19:53:25;2.25;;;1.92;;
18627;SDS011;9443;50.888;10.728;2022-07-09T20:03:25;3.80;;;1.55;;
18627;SDS011;9443;50.888;10.728;2022-07-09T20:13:25;2.03;;;1.60;;
18627;SDS011;9443;50.888;10.728;2022-07-09T20:23:26;3.08;;;1.50;;
18627;SDS011;9443;50.888;10.728;2022-07-09T20:33:26;2.28;;;1.55;;
18627;SDS011;9443;50.888;10.728;2022-07-09T20:43:26;2.63;;;1.98;;
18627;SDS011;9443;50.888;10.728;2022-07-09T20:53:27;4.43;;;1.58;;
18627;SDS011;9443;50.888;10.728;2022-07-09T21:03:27;2.10;;;1.25;;
18627;SDS011;9443;50.888;10.728;2022-07-09T21:13:28;4.35;;;1.65;;
18627;SDS011;9443;50.888;10.728;2022-07-09T21:23:28;4.47;;;2.10;;
18627;SDS011;9443;50.888;10.728;2022-07-09T21:33:29;7.40;;;1.30;;
18627;SDS011;9443;50.888;10.728;2022-07-09T21:43:29;5.13;;;1.10;;
18627;SDS011;9443;50.888;10.728;2022-07-09T21:53:29;1.20;;;1.10;;
18627;SDS011;9443;50.888;10.728;2022-07-09T22:03:30;6.23;;;1.20;;
18627;SDS011;9443;50.888;10.728;2022-07-09T22:13:30;1.17;;;0.87;;
18627;SDS011;9443;50.888;10.728;2022-07-09T22:23:31;5.83;;;1.20;;
18627;SDS011;9443;50.888;10.728;2022-07-09T22:33:31;1.73;;;0.90;;
18627;SDS011;9443;50.888;10.728;2022-07-09T22:43:31;2.40;;;0.80;;
18627;SDS011;9443;50.888;10.728;2022-07-09T22:53:32;1.70;;;1.00;;
18627;SDS011;9443;50.888;10.728;2022-07-09T23:03:32;3.30;;;0.80;;
18627;SDS011;9443;50.888;10.728;2022-07-09T23:13:32;4.87;;;0.90;;
18627;SDS011;9443;50.888;10.728;2022-07-09T23:23:33;3.00;;;1.57;;
18627;SDS011;9443;50.888;10.728;2022-07-09T23:33:33;2.60;;;0.93;;
18627;SDS011;9443;50.888;10.728;2022-07-09T23:43:33;2.20;;;0.90;;
18627;SDS011;9443;50.888;10.728;2022-07-09T23:53:34;2.07;;;0.87;;
